METAR Data
IDs: Format: Raw Decoded Include TAF

Data at: 1157 UTC 23 Sep 2018

KART 231056Z AUTO 12003KT 10SM FEW028 04/04 A3026 RMK AO2 SLP249 T00390039 $
KART 231041Z AUTO 10003KT 10SM FEW027 04/04 A3026 RMK AO2 T00390039 $
KART 231003Z AUTO 00000KT 10SM BKN027 05/04 A3025 RMK AO2 T00500044 $
KART 230956Z AUTO 07003KT 10SM SCT027 05/04 A3025 RMK AO2 SLP246 T00500044 $
KART 230936Z AUTO 00000KT 10SM BKN029 04/04 A3025 RMK AO2 T00440039 $
KART 230856Z AUTO 06003KT 10SM SCT035 04/04 A3025 RMK AO2 SLP245 T00440039 53001 $
KART 230756Z AUTO 00000KT 10SM FEW032 06/04 A3024 RMK AO2 SLP241 T00560044 $
KART 230656Z AUTO 14003KT 10SM CLR 06/05 A3024 RMK AO2 SLP240 T00610050 $
KART 230556Z AUTO 00000KT 10SM CLR 05/04 A3025 RMK AO2 SLP243 T00500044 10078 20028 51000 $
KART 230456Z AUTO 00000KT 10SM CLR 04/04 A3024 RMK AO2 SLP242 T00390039 401830028 $
KART 230356Z AUTO 00000KT 10SM CLR 04/04 A3025 RMK AO2 SLP244 T00440039 $
KART 230256Z AUTO 00000KT 10SM CLR 06/05 A3024 RMK AO2 SLP243 T00560050 50000 $
KART 230156Z AUTO 00000KT 10SM CLR 05/04 A3025 RMK AO2 SLP244 T00500044 $
KART 230056Z AUTO 00000KT 10SM CLR 06/06 A3026 RMK AO2 SLP247 T00610056 $
KART 222356Z AUTO 00000KT 10SM CLR 07/06 A3024 RMK AO2 SLP243 T00720061 10156 20072 50003 $
KART 222256Z AUTO 00000KT 10SM CLR 09/07 A3025 RMK AO2 SLP243 T00940072 $
KART 222156Z AUTO 32004KT 10SM CLR 14/04 A3024 RMK AO2 SLP240 T01390039 $
KART 222056Z AUTO 31005KT 10SM CLR 14/04 A3023 RMK AO2 SLP237 T01390044 55005 $
KART 221956Z AUTO 01007KT 10SM CLR 14/05 A3023 RMK AO2 SLP236 T01440050 $
KART 221856Z AUTO 01006KT 10SM CLR 16/04 A3024 RMK AO2 SLP240 T01560044 $
KART 221756Z AUTO 01005KT 10SM CLR 15/04 A3025 RMK AO2 SLP241 T01500044 10156 20106 58010 $
KART 221656Z AUTO 02010KT 10SM FEW040 14/04 A3027 RMK AO2 SLP248 T01440044 $
KART 221556Z AUTO 01007KT 10SM FEW039 14/04 A3028 RMK AO2 SLP250 T01390044 $
KART 221456Z AUTO 36010KT 10SM CLR 13/04 A3028 RMK AO2 SLP251 T01330044 51022 $
KART 221356Z AUTO 01008KT 10SM FEW036 13/05 A3027 RMK AO2 SLP247 T01280050 $
KART 221256Z AUTO 36009KT 10SM CLR 12/04 A3024 RMK AO2 SLP238 T01220044 $
KART 221156Z AUTO 01010KT 10SM FEW041 11/05 A3022 RMK AO2 SLP229 70008 T01060050 10167 20106 51051 $
KART 221056Z AUTO 02010KT 10SM OVC042 12/06 A3018 RMK AO2 SLP215 T01170056 $
KART 220956Z AUTO 02007KT 10SM OVC037 13/08 A3012 RMK AO2 SLP196 T01330078 $
KART 220856Z AUTO 30008KT 10SM OVC050 14/08 A3006 RMK AO2 SLP176 T01390078 51042 $
KART 220756Z AUTO 28013KT 10SM FEW050 14/07 A3003 RMK AO2 PK WND 28026/0708 SLP163 T01440072 $
KART 220656Z AUTO 28018G25KT 10SM BKN043 16/08 A2999 RMK AO2 PK WND 28028/0601 SLP150 T01560083 $
KART 220556Z AUTO 29019G33KT 10SM FEW034 17/09 A2994 RMK AO2 PK WND 29033/0549 SLP133 60001 T01670094 10222 20167 53049 $
KART 220456Z AUTO 27021G31KT 10SM CLR 19/12 A2988 RMK AO2 PK WND 26031/0455 SLP113 T01890117 402780156 $
KART 220356Z AUTO 27011KT 10SM BKN060 OVC080 20/14 A2984 RMK AO2 SLP101 T02000139 $
KART 220256Z AUTO 25015G25KT 10SM SCT045 BKN055 22/18 A2979 RMK AO2 PRESRR SLP082 60001 T02220183 51041 $
KART 220156Z AUTO 22017G24KT 8SM SCT080 22/21 A2974 RMK AO2 PK WND 22028/0058 SLP066 T02220206 $
KART 220056Z AUTO 22017G26KT 7SM FEW030 SCT038 BKN060 22/21 A2973 RMK AO2 PK WND 22029/0026 RAE41 SLP061 P0001 T02220206 $